sensor_id;sensor_type;location;lat;lon;timestamp;P1;durP1;ratioP1;P2;durP2;ratioP2
33760;SDS011;20084;47.912;19.044;2023-07-02T00:01:41;6.72;;;4.78;;
33760;SDS011;20084;47.912;19.044;2023-07-02T00:04:06;9.80;;;5.50;;
33760;SDS011;20084;47.912;19.044;2023-07-02T00:06:34;9.38;;;5.50;;
33760;SDS011;20084;47.912;19.044;2023-07-02T00:09:05;7.72;;;5.07;;
33760;SDS011;20084;47.912;19.044;2023-07-02T00:11:31;7.35;;;5.82;;
33760;SDS011;20084;47.912;19.044;2023-07-02T00:13:56;6.40;;;5.80;;
33760;SDS011;20084;47.912;19.044;2023-07-02T00:16:22;7.95;;;5.60;;
33760;SDS011;20084;47.912;19.044;2023-07-02T00:18:48;6.70;;;5.38;;
33760;SDS011;20084;47.912;19.044;2023-07-02T00:21:17;7.40;;;6.55;;
33760;SDS011;20084;47.912;19.044;2023-07-02T00:23:44;6.38;;;5.80;;
33760;SDS011;20084;47.912;19.044;2023-07-02T00:26:10;7.18;;;5.25;;
33760;SDS011;20084;47.912;19.044;2023-07-02T00:28:35;6.72;;;6.05;;
33760;SDS011;20084;47.912;19.044;2023-07-02T00:31:01;6.90;;;6.30;;
33760;SDS011;20084;47.912;19.044;2023-07-02T00:33:27;6.70;;;5.97;;
33760;SDS011;20084;47.912;19.044;2023-07-02T00:35:56;6.05;;;5.45;;
33760;SDS011;20084;47.912;19.044;2023-07-02T00:38:21;5.97;;;5.40;;
33760;SDS011;20084;47.912;19.044;2023-07-02T00:40:47;8.02;;;5.72;;
33760;SDS011;20084;47.912;19.044;2023-07-02T00:43:13;7.22;;;5.97;;
33760;SDS011;20084;47.912;19.044;2023-07-02T00:45:39;8.10;;;5.88;;
33760;SDS011;20084;47.912;19.044;2023-07-02T00:48:07;7.30;;;6.45;;
33760;SDS011;20084;47.912;19.044;2023-07-02T00:50:33;8.40;;;7.57;;
33760;SDS011;20084;47.912;19.044;2023-07-02T00:52:59;8.07;;;7.28;;
33760;SDS011;20084;47.912;19.044;2023-07-02T00:55:24;9.85;;;6.45;;
33760;SDS011;20084;47.912;19.044;2023-07-02T00:57:50;8.38;;;6.60;;
33760;SDS011;20084;47.912;19.044;2023-07-02T01:00:16;12.13;;;7.25;;
33760;SDS011;20084;47.912;19.044;2023-07-02T01:02:42;9.57;;;6.68;;
33760;SDS011;20084;47.912;19.044;2023-07-02T01:05:14;8.23;;;6.93;;
33760;SDS011;20084;47.912;19.044;2023-07-02T01:07:40;11.13;;;7.43;;
33760;SDS011;20084;47.912;19.044;2023-07-02T01:10:06;8.75;;;7.65;;
33760;SDS011;20084;47.912;19.044;2023-07-02T01:12:32;7.93;;;7.07;;
33760;SDS011;20084;47.912;19.044;2023-07-02T01:15:00;9.48;;;7.20;;
33760;SDS011;20084;47.912;19.044;2023-07-02T01:17:29;10.10;;;7.30;;
33760;SDS011;20084;47.912;19.044;2023-07-02T01:20:05;8.73;;;7.85;;
33760;SDS011;20084;47.912;19.044;2023-07-02T01:22:33;11.48;;;8.18;;
33760;SDS011;20084;47.912;19.044;2023-07-02T01:24:59;9.93;;;7.82;;
33760;SDS011;20084;47.912;19.044;2023-07-02T01:27:27;12.77;;;8.57;;
33760;SDS011;20084;47.912;19.044;2023-07-02T01:29:54;13.60;;;9.52;;
33760;SDS011;20084;47.912;19.044;2023-07-02T01:32:20;9.90;;;9.00;;
33760;SDS011;20084;47.912;19.044;2023-07-02T01:34:46;11.27;;;9.77;;
33760;SDS011;20084;47.912;19.044;2023-07-02T01:37:14;12.45;;;9.93;;
33760;SDS011;20084;47.912;19.044;2023-07-02T01:39:41;11.93;;;9.82;;
33760;SDS011;20084;47.912;19.044;2023-07-02T01:42:14;10.68;;;9.57;;
33760;SDS011;20084;47.912;19.044;2023-07-02T01:44:41;11.35;;;9.75;;
33760;SDS011;20084;47.912;19.044;2023-07-02T01:47:07;11.10;;;9.75;;
33760;SDS011;20084;47.912;19.044;2023-07-02T01:49:33;11.70;;;9.35;;
33760;SDS011;20084;47.912;19.044;2023-07-02T01:52:01;11.32;;;9.50;;
33760;SDS011;20084;47.912;19.044;2023-07-02T01:54:28;12.13;;;10.15;;
33760;SDS011;20084;47.912;19.044;2023-07-02T01:56:55;13.95;;;9.75;;
33760;SDS011;20084;47.912;19.044;2023-07-02T01:59:21;13.93;;;10.43;;
33760;SDS011;20084;47.912;19.044;2023-07-02T02:01:47;11.48;;;10.23;;
33760;SDS011;20084;47.912;19.044;2023-07-02T02:04:12;10.73;;;9.50;;
33760;SDS011;20084;47.912;19.044;2023-07-02T02:06:39;13.27;;;10.10;;
33760;SDS011;20084;47.912;19.044;2023-07-02T02:09:05;11.23;;;9.40;;
33760;SDS011;20084;47.912;19.044;2023-07-02T02:11:33;11.27;;;9.70;;
33760;SDS011;20084;47.912;19.044;2023-07-02T02:13:59;10.52;;;9.18;;
33760;SDS011;20084;47.912;19.044;2023-07-02T02:16:28;11.32;;;9.98;;
33760;SDS011;20084;47.912;19.044;2023-07-02T02:18:54;10.45;;;9.38;;
33760;SDS011;20084;47.912;19.044;2023-07-02T02:21:20;9.75;;;8.50;;
33760;SDS011;20084;47.912;19.044;2023-07-02T02:23:46;10.90;;;8.48;;
33760;SDS011;20084;47.912;19.044;2023-07-02T02:26:12;11.52;;;9.52;;
33760;SDS011;20084;47.912;19.044;2023-07-02T02:28:38;8.88;;;7.95;;
33760;SDS011;20084;47.912;19.044;2023-07-02T02:31:03;10.95;;;9.23;;
33760;SDS011;20084;47.912;19.044;2023-07-02T02:33:29;8.93;;;8.02;;
33760;SDS011;20084;47.912;19.044;2023-07-02T02:35:55;10.68;;;8.95;;
33760;SDS011;20084;47.912;19.044;2023-07-02T02:38:21;10.23;;;9.23;;
33760;SDS011;20084;47.912;19.044;2023-07-02T02:40:46;10.43;;;9.13;;
33760;SDS011;20084;47.912;19.044;2023-07-02T02:43:12;11.13;;;9.65;;
33760;SDS011;20084;47.912;19.044;2023-07-02T02:45:38;11.25;;;9.38;;
33760;SDS011;20084;47.912;19.044;2023-07-02T02:48:04;10.95;;;9.27;;
33760;SDS011;20084;47.912;19.044;2023-07-02T02:50:30;14.07;;;9.07;;
33760;SDS011;20084;47.912;19.044;2023-07-02T02:52:55;11.88;;;9.50;;
33760;SDS011;20084;47.912;19.044;2023-07-02T02:55:21;12.13;;;10.30;;
33760;SDS011;20084;47.912;19.044;2023-07-02T02:57:46;11.43;;;9.20;;
33760;SDS011;20084;47.912;19.044;2023-07-02T03:00:12;12.95;;;10.10;;
33760;SDS011;20084;47.912;19.044;2023-07-02T03:02:38;11.57;;;9.55;;
33760;SDS011;20084;47.912;19.044;2023-07-02T03:05:06;14.73;;;9.00;;
33760;SDS011;20084;47.912;19.044;2023-07-02T03:07:32;11.93;;;9.55;;
33760;SDS011;20084;47.912;19.044;2023-07-02T03:09:58;11.65;;;9.48;;
33760;SDS011;20084;47.912;19.044;2023-07-02T03:12:27;11.63;;;9.38;;
33760;SDS011;20084;47.912;19.044;2023-07-02T03:14:53;10.07;;;8.98;;
33760;SDS011;20084;47.912;19.044;2023-07-02T03:17:23;11.20;;;8.90;;
33760;SDS011;20084;47.912;19.044;2023-07-02T03:19:49;11.00;;;9.07;;
33760;SDS011;20084;47.912;19.044;2023-07-02T03:22:15;10.82;;;8.93;;
33760;SDS011;20084;47.912;19.044;2023-07-02T03:24:41;14.85;;;9.00;;
33760;SDS011;20084;47.912;19.044;2023-07-02T03:27:07;9.80;;;8.80;;
33760;SDS011;20084;47.912;19.044;2023-07-02T03:29:33;11.18;;;8.38;;
33760;SDS011;20084;47.912;19.044;2023-07-02T03:31:59;9.88;;;8.40;;
33760;SDS011;20084;47.912;19.044;2023-07-02T03:34:25;9.05;;;7.43;;
33760;SDS011;20084;47.912;19.044;2023-07-02T03:36:51;11.57;;;8.13;;
33760;SDS011;20084;47.912;19.044;2023-07-02T03:39:16;12.20;;;8.45;;
33760;SDS011;20084;47.912;19.044;2023-07-02T03:41:43;11.82;;;8.57;;
33760;SDS011;20084;47.912;19.044;2023-07-02T03:44:09;12.25;;;8.60;;
33760;SDS011;20084;47.912;19.044;2023-07-02T03:46:34;11.88;;;8.10;;
33760;SDS011;20084;47.912;19.044;2023-07-02T03:49:00;14.30;;;8.93;;
33760;SDS011;20084;47.912;19.044;2023-07-02T03:51:28;12.77;;;8.15;;
33760;SDS011;20084;47.912;19.044;2023-07-02T03:53:53;10.85;;;8.25;;
33760;SDS011;20084;47.912;19.044;2023-07-02T03:56:19;13.30;;;8.18;;
33760;SDS011;20084;47.912;19.044;2023-07-02T03:58:45;17.98;;;8.50;;
33760;SDS011;20084;47.912;19.044;2023-07-02T04:01:11;10.05;;;8.15;;
33760;SDS011;20084;47.912;19.044;2023-07-02T04:03:37;8.45;;;7.65;;
33760;SDS011;20084;47.912;19.044;2023-07-02T04:06:03;10.88;;;8.13;;
33760;SDS011;20084;47.912;19.044;2023-07-02T04:08:30;9.63;;;8.52;;
33760;SDS011;20084;47.912;19.044;2023-07-02T04:10:56;10.00;;;8.05;;
33760;SDS011;20084;47.912;19.044;2023-07-02T04:13:22;8.77;;;7.95;;
33760;SDS011;20084;47.912;19.044;2023-07-02T04:15:48;13.90;;;8.15;;
33760;SDS011;20084;47.912;19.044;2023-07-02T04:18:14;13.25;;;8.35;;
33760;SDS011;20084;47.912;19.044;2023-07-02T04:20:39;8.30;;;7.40;;
33760;SDS011;20084;47.912;19.044;2023-07-02T04:23:05;18.35;;;8.18;;
33760;SDS011;20084;47.912;19.044;2023-07-02T04:25:31;22.73;;;8.88;;
33760;SDS011;20084;47.912;19.044;2023-07-02T04:27:56;8.35;;;7.45;;
33760;SDS011;20084;47.912;19.044;2023-07-02T04:30:23;8.70;;;7.88;;
33760;SDS011;20084;47.912;19.044;2023-07-02T04:32:50;20.83;;;8.02;;
33760;SDS011;20084;47.912;19.044;2023-07-02T04:35:16;10.65;;;7.43;;
33760;SDS011;20084;47.912;19.044;2023-07-02T04:37:42;10.25;;;7.43;;
33760;SDS011;20084;47.912;19.044;2023-07-02T04:40:08;7.63;;;6.78;;
33760;SDS011;20084;47.912;19.044;2023-07-02T04:42:35;9.68;;;6.28;;
33760;SDS011;20084;47.912;19.044;2023-07-02T04:45:05;12.02;;;7.43;;
33760;SDS011;20084;47.912;19.044;2023-07-02T04:47:32;7.95;;;6.43;;
33760;SDS011;20084;47.912;19.044;2023-07-02T04:49:58;8.07;;;6.43;;
33760;SDS011;20084;47.912;19.044;2023-07-02T04:52:24;7.10;;;6.35;;
33760;SDS011;20084;47.912;19.044;2023-07-02T04:54:49;7.25;;;5.90;;
33760;SDS011;20084;47.912;19.044;2023-07-02T04:57:15;11.52;;;6.30;;
33760;SDS011;20084;47.912;19.044;2023-07-02T04:59:41;8.70;;;6.20;;
33760;SDS011;20084;47.912;19.044;2023-07-02T05:02:07;7.13;;;6.13;;
33760;SDS011;20084;47.912;19.044;2023-07-02T05:04:33;6.68;;;5.40;;
33760;SDS011;20084;47.912;19.044;2023-07-02T05:07:02;9.68;;;5.82;;
33760;SDS011;20084;47.912;19.044;2023-07-02T05:09:28;7.25;;;6.20;;
33760;SDS011;20084;47.912;19.044;2023-07-02T05:11:53;7.32;;;5.80;;
33760;SDS011;20084;47.912;19.044;2023-07-02T05:14:19;8.68;;;6.07;;
33760;SDS011;20084;47.912;19.044;2023-07-02T05:16:45;7.05;;;5.68;;
33760;SDS011;20084;47.912;19.044;2023-07-02T05:19:10;8.27;;;5.80;;
33760;SDS011;20084;47.912;19.044;2023-07-02T05:21:36;8.27;;;6.00;;
33760;SDS011;20084;47.912;19.044;2023-07-02T05:24:02;9.50;;;5.57;;
33760;SDS011;20084;47.912;19.044;2023-07-02T05:26:27;7.10;;;5.70;;
33760;SDS011;20084;47.912;19.044;2023-07-02T05:28:53;8.43;;;6.15;;
33760;SDS011;20084;47.912;19.044;2023-07-02T05:31:19;8.45;;;6.00;;
33760;SDS011;20084;47.912;19.044;2023-07-02T05:33:44;9.35;;;6.22;;
33760;SDS011;20084;47.912;19.044;2023-07-02T05:36:10;7.47;;;5.57;;
33760;SDS011;20084;47.912;19.044;2023-07-02T05:38:36;8.68;;;6.18;;
33760;SDS011;20084;47.912;19.044;2023-07-02T05:41:02;10.75;;;5.88;;
33760;SDS011;20084;47.912;19.044;2023-07-02T05:43:28;8.98;;;6.53;;
33760;SDS011;20084;47.912;19.044;2023-07-02T05:45:54;10.23;;;6.90;;
33760;SDS011;20084;47.912;19.044;2023-07-02T05:48:23;7.90;;;5.90;;
33760;SDS011;20084;47.912;19.044;2023-07-02T05:50:48;7.25;;;5.68;;
33760;SDS011;20084;47.912;19.044;2023-07-02T05:53:14;7.05;;;5.97;;
33760;SDS011;20084;47.912;19.044;2023-07-02T05:55:40;7.05;;;5.47;;
33760;SDS011;20084;47.912;19.044;2023-07-02T05:58:07;7.35;;;5.70;;
33760;SDS011;20084;47.912;19.044;2023-07-02T06:00:32;7.15;;;6.10;;
33760;SDS011;20084;47.912;19.044;2023-07-02T06:02:58;7.28;;;5.68;;
33760;SDS011;20084;47.912;19.044;2023-07-02T06:05:24;6.90;;;6.05;;
33760;SDS011;20084;47.912;19.044;2023-07-02T06:07:49;6.15;;;5.43;;
33760;SDS011;20084;47.912;19.044;2023-07-02T06:10:15;5.57;;;4.90;;
33760;SDS011;20084;47.912;19.044;2023-07-02T06:12:42;5.18;;;4.68;;
33760;SDS011;20084;47.912;19.044;2023-07-02T06:15:08;7.93;;;4.28;;
33760;SDS011;20084;47.912;19.044;2023-07-02T06:17:34;6.53;;;4.65;;
33760;SDS011;20084;47.912;19.044;2023-07-02T06:20:01;15.65;;;6.43;;
33760;SDS011;20084;47.912;19.044;2023-07-02T06:22:29;5.55;;;4.35;;
33760;SDS011;20084;47.912;19.044;2023-07-02T06:24:55;11.65;;;4.65;;
33760;SDS011;20084;47.912;19.044;2023-07-02T06:27:21;5.93;;;4.43;;
33760;SDS011;20084;47.912;19.044;2023-07-02T06:29:46;8.77;;;3.50;;
33760;SDS011;20084;47.912;19.044;2023-07-02T06:32:12;7.38;;;4.43;;
33760;SDS011;20084;47.912;19.044;2023-07-02T06:34:38;7.57;;;4.28;;
33760;SDS011;20084;47.912;19.044;2023-07-02T06:37:04;5.95;;;4.35;;
33760;SDS011;20084;47.912;19.044;2023-07-02T06:39:30;5.50;;;4.32;;
33760;SDS011;20084;47.912;19.044;2023-07-02T06:41:55;3.53;;;3.20;;
33760;SDS011;20084;47.912;19.044;2023-07-02T06:44:21;4.97;;;3.33;;
33760;SDS011;20084;47.912;19.044;2023-07-02T06:46:47;3.75;;;3.40;;
33760;SDS011;20084;47.912;19.044;2023-07-02T06:49:12;4.65;;;3.20;;
33760;SDS011;20084;47.912;19.044;2023-07-02T06:51:38;5.03;;;3.47;;
33760;SDS011;20084;47.912;19.044;2023-07-02T06:54:04;3.40;;;3.10;;
33760;SDS011;20084;47.912;19.044;2023-07-02T06:56:30;3.67;;;3.30;;
33760;SDS011;20084;47.912;19.044;2023-07-02T06:58:57;4.03;;;3.63;;
33760;SDS011;20084;47.912;19.044;2023-07-02T07:01:23;3.60;;;2.60;;
33760;SDS011;20084;47.912;19.044;2023-07-02T07:03:48;3.28;;;2.65;;
33760;SDS011;20084;47.912;19.044;2023-07-02T07:06:14;3.33;;;3.00;;
33760;SDS011;20084;47.912;19.044;2023-07-02T07:08:40;3.88;;;2.97;;
33760;SDS011;20084;47.912;19.044;2023-07-02T07:11:06;3.25;;;2.88;;
33760;SDS011;20084;47.912;19.044;2023-07-02T07:13:31;3.22;;;2.75;;
33760;SDS011;20084;47.912;19.044;2023-07-02T07:15:57;3.97;;;2.95;;
33760;SDS011;20084;47.912;19.044;2023-07-02T07:18:23;2.75;;;2.40;;
33760;SDS011;20084;47.912;19.044;2023-07-02T07:20:48;2.83;;;2.47;;
33760;SDS011;20084;47.912;19.044;2023-07-02T07:23:15;9.98;;;2.58;;
33760;SDS011;20084;47.912;19.044;2023-07-02T07:25:42;5.32;;;2.45;;
33760;SDS011;20084;47.912;19.044;2023-07-02T07:28:08;2.88;;;2.55;;
33760;SDS011;20084;47.912;19.044;2023-07-02T07:30:37;9.65;;;2.80;;
33760;SDS011;20084;47.912;19.044;2023-07-02T07:33:02;2.58;;;2.38;;
33760;SDS011;20084;47.912;19.044;2023-07-02T07:35:28;5.85;;;2.38;;
33760;SDS011;20084;47.912;19.044;2023-07-02T07:37:53;4.70;;;2.78;;
33760;SDS011;20084;47.912;19.044;2023-07-02T07:40:19;3.97;;;2.85;;
33760;SDS011;20084;47.912;19.044;2023-07-02T07:42:45;2.50;;;2.30;;
33760;SDS011;20084;47.912;19.044;2023-07-02T07:45:11;2.78;;;2.00;;
33760;SDS011;20084;47.912;19.044;2023-07-02T07:47:36;2.13;;;1.90;;
33760;SDS011;20084;47.912;19.044;2023-07-02T07:50:02;4.53;;;2.35;;
33760;SDS011;20084;47.912;19.044;2023-07-02T07:52:34;2.60;;;2.20;;
33760;SDS011;20084;47.912;19.044;2023-07-02T07:55:01;6.90;;;2.28;;
33760;SDS011;20084;47.912;19.044;2023-07-02T07:57:27;4.28;;;2.28;;
33760;SDS011;20084;47.912;19.044;2023-07-02T07:59:52;4.65;;;2.40;;
33760;SDS011;20084;47.912;19.044;2023-07-02T08:02:18;4.05;;;2.67;;
33760;SDS011;20084;47.912;19.044;2023-07-02T08:04:43;4.93;;;2.78;;
33760;SDS011;20084;47.912;19.044;2023-07-02T08:07:09;3.08;;;2.60;;
33760;SDS011;20084;47.912;19.044;2023-07-02T08:09:34;6.82;;;2.80;;
33760;SDS011;20084;47.912;19.044;2023-07-02T08:12:00;2.88;;;2.60;;
33760;SDS011;20084;47.912;19.044;2023-07-02T08:14:26;6.30;;;2.90;;
33760;SDS011;20084;47.912;19.044;2023-07-02T08:16:51;4.30;;;3.10;;
33760;SDS011;20084;47.912;19.044;2023-07-02T08:19:17;5.55;;;3.10;;
33760;SDS011;20084;47.912;19.044;2023-07-02T08:21:42;4.10;;;2.80;;
33760;SDS011;20084;47.912;19.044;2023-07-02T08:24:08;4.63;;;2.72;;
33760;SDS011;20084;47.912;19.044;2023-07-02T08:26:34;5.25;;;2.80;;
33760;SDS011;20084;47.912;19.044;2023-07-02T08:28:59;5.03;;;2.85;;
33760;SDS011;20084;47.912;19.044;2023-07-02T08:31:25;2.60;;;2.40;;
33760;SDS011;20084;47.912;19.044;2023-07-02T08:33:51;3.85;;;2.65;;
33760;SDS011;20084;47.912;19.044;2023-07-02T08:36:16;3.38;;;2.40;;
33760;SDS011;20084;47.912;19.044;2023-07-02T08:38:42;9.85;;;2.92;;
33760;SDS011;20084;47.912;19.044;2023-07-02T08:41:08;4.05;;;2.40;;
33760;SDS011;20084;47.912;19.044;2023-07-02T08:43:34;3.40;;;2.60;;
33760;SDS011;20084;47.912;19.044;2023-07-02T08:46:01;6.78;;;2.75;;
33760;SDS011;20084;47.912;19.044;2023-07-02T08:48:27;4.75;;;2.42;;
33760;SDS011;20084;47.912;19.044;2023-07-02T08:50:54;13.43;;;2.53;;
33760;SDS011;20084;47.912;19.044;2023-07-02T08:53:21;2.92;;;2.40;;
33760;SDS011;20084;47.912;19.044;2023-07-02T08:55:54;2.30;;;2.10;;
33760;SDS011;20084;47.912;19.044;2023-07-02T08:58:21;3.25;;;2.75;;
33760;SDS011;20084;47.912;19.044;2023-07-02T09:03:34;2.58;;;2.38;;
33760;SDS011;20084;47.912;19.044;2023-07-02T09:06:08;34.75;;;4.35;;
33760;SDS011;20084;47.912;19.044;2023-07-02T09:08:35;2.90;;;2.50;;
33760;SDS011;20084;47.912;19.044;2023-07-02T09:19:07;6.97;;;2.70;;
33760;SDS011;20084;47.912;19.044;2023-07-02T09:21:48;2.78;;;2.58;;
33760;SDS011;20084;47.912;19.044;2023-07-02T09:24:15;5.30;;;2.83;;
33760;SDS011;20084;47.912;19.044;2023-07-02T09:26:52;2.92;;;2.50;;
33760;SDS011;20084;47.912;19.044;2023-07-02T09:29:21;3.65;;;2.85;;
33760;SDS011;20084;47.912;19.044;2023-07-02T09:31:48;5.78;;;2.60;;
33760;SDS011;20084;47.912;19.044;2023-07-02T09:34:14;6.68;;;3.03;;
33760;SDS011;20084;47.912;19.044;2023-07-02T09:36:41;4.70;;;2.58;;
33760;SDS011;20084;47.912;19.044;2023-07-02T09:39:14;4.07;;;2.95;;
33760;SDS011;20084;47.912;19.044;2023-07-02T09:41:44;2.83;;;2.50;;
33760;SDS011;20084;47.912;19.044;2023-07-02T09:44:13;3.05;;;2.40;;
33760;SDS011;20084;47.912;19.044;2023-07-02T09:46:42;2.45;;;2.25;;
33760;SDS011;20084;47.912;19.044;2023-07-02T09:49:17;3.63;;;2.40;;
33760;SDS011;20084;47.912;19.044;2023-07-02T09:51:47;3.47;;;2.60;;
33760;SDS011;20084;47.912;19.044;2023-07-02T09:54:13;4.15;;;2.88;;
33760;SDS011;20084;47.912;19.044;2023-07-02T09:56:39;2.83;;;2.60;;
33760;SDS011;20084;47.912;19.044;2023-07-02T09:59:05;3.10;;;2.75;;
33760;SDS011;20084;47.912;19.044;2023-07-02T10:01:31;3.60;;;2.58;;
33760;SDS011;20084;47.912;19.044;2023-07-02T10:03:56;4.30;;;2.92;;
33760;SDS011;20084;47.912;19.044;2023-07-02T10:06:22;4.13;;;2.50;;
33760;SDS011;20084;47.912;19.044;2023-07-02T10:08:54;3.30;;;3.00;;
33760;SDS011;20084;47.912;19.044;2023-07-02T10:11:21;6.20;;;2.80;;
33760;SDS011;20084;47.912;19.044;2023-07-02T10:13:59;6.85;;;2.63;;
33760;SDS011;20084;47.912;19.044;2023-07-02T10:16:25;3.42;;;2.63;;
33760;SDS011;20084;47.912;19.044;2023-07-02T10:18:53;4.05;;;2.60;;
33760;SDS011;20084;47.912;19.044;2023-07-02T10:21:19;3.08;;;2.78;;
33760;SDS011;20084;47.912;19.044;2023-07-02T10:23:44;4.47;;;2.63;;
33760;SDS011;20084;47.912;19.044;2023-07-02T10:26:13;8.23;;;2.38;;
33760;SDS011;20084;47.912;19.044;2023-07-02T10:28:41;2.95;;;2.65;;
33760;SDS011;20084;47.912;19.044;2023-07-02T10:31:20;3.95;;;2.58;;
33760;SDS011;20084;47.912;19.044;2023-07-02T10:33:46;6.05;;;2.97;;
33760;SDS011;20084;47.912;19.044;2023-07-02T10:36:19;4.45;;;2.88;;
33760;SDS011;20084;47.912;19.044;2023-07-02T10:38:51;2.67;;;2.25;;
33760;SDS011;20084;47.912;19.044;2023-07-02T10:41:27;7.60;;;2.50;;
33760;SDS011;20084;47.912;19.044;2023-07-02T10:43:54;2.88;;;2.40;;
33760;SDS011;20084;47.912;19.044;2023-07-02T10:46:30;6.30;;;2.60;;
33760;SDS011;20084;47.912;19.044;2023-07-02T10:48:55;2.58;;;2.17;;
33760;SDS011;20084;47.912;19.044;2023-07-02T10:51:22;2.55;;;2.35;;
33760;SDS011;20084;47.912;19.044;2023-07-02T10:54:02;6.45;;;2.42;;
33760;SDS011;20084;47.912;19.044;2023-07-02T10:56:30;2.60;;;2.25;;
33760;SDS011;20084;47.912;19.044;2023-07-02T10:58:56;5.47;;;2.40;;
33760;SDS011;20084;47.912;19.044;2023-07-02T11:01:26;4.45;;;2.60;;
33760;SDS011;20084;47.912;19.044;2023-07-02T11:04:00;3.88;;;2.38;;
33760;SDS011;20084;47.912;19.044;2023-07-02T11:06:29;3.00;;;2.67;;
33760;SDS011;20084;47.912;19.044;2023-07-02T11:08:56;4.28;;;2.60;;
33760;SDS011;20084;47.912;19.044;2023-07-02T11:11:21;2.78;;;2.30;;
33760;SDS011;20084;47.912;19.044;2023-07-02T11:13:48;4.38;;;3.05;;
33760;SDS011;20084;47.912;19.044;2023-07-02T11:16:22;3.78;;;2.28;;
33760;SDS011;20084;47.912;19.044;2023-07-02T11:18:54;3.60;;;2.15;;
33760;SDS011;20084;47.912;19.044;2023-07-02T11:21:33;2.83;;;2.08;;
33760;SDS011;20084;47.912;19.044;2023-07-02T11:24:03;2.38;;;2.13;;
33760;SDS011;20084;47.912;19.044;2023-07-02T11:26:40;3.92;;;1.92;;
33760;SDS011;20084;47.912;19.044;2023-07-02T11:29:12;3.47;;;2.40;;
33760;SDS011;20084;47.912;19.044;2023-07-02T11:31:43;8.00;;;2.08;;
33760;SDS011;20084;47.912;19.044;2023-07-02T11:34:19;5.78;;;2.63;;
33760;SDS011;20084;47.912;19.044;2023-07-02T11:36:46;3.45;;;2.10;;
33760;SDS011;20084;47.912;19.044;2023-07-02T11:39:12;4.53;;;2.40;;
33760;SDS011;20084;47.912;19.044;2023-07-02T11:41:39;5.40;;;2.50;;
33760;SDS011;20084;47.912;19.044;2023-07-02T11:44:06;3.55;;;2.28;;
33760;SDS011;20084;47.912;19.044;2023-07-02T11:46:31;2.50;;;2.20;;
33760;SDS011;20084;47.912;19.044;2023-07-02T11:48:57;3.08;;;2.25;;
33760;SDS011;20084;47.912;19.044;2023-07-02T11:51:25;2.72;;;1.90;;
33760;SDS011;20084;47.912;19.044;2023-07-02T11:53:50;8.68;;;2.10;;
33760;SDS011;20084;47.912;19.044;2023-07-02T11:56:16;6.40;;;2.75;;
33760;SDS011;20084;47.912;19.044;2023-07-02T11:58:41;2.08;;;1.83;;
33760;SDS011;20084;47.912;19.044;2023-07-02T12:01:08;2.00;;;1.80;;
33760;SDS011;20084;47.912;19.044;2023-07-02T12:03:34;3.85;;;1.70;;
33760;SDS011;20084;47.912;19.044;2023-07-02T12:05:59;2.60;;;1.70;;
33760;SDS011;20084;47.912;19.044;2023-07-02T12:08:25;2.15;;;1.38;;
33760;SDS011;20084;47.912;19.044;2023-07-02T12:10:51;3.60;;;1.60;;
33760;SDS011;20084;47.912;19.044;2023-07-02T12:13:16;2.20;;;2.10;;
33760;SDS011;20084;47.912;19.044;2023-07-02T12:15:42;2.35;;;2.15;;
33760;SDS011;20084;47.912;19.044;2023-07-02T12:18:08;6.95;;;3.15;;
33760;SDS011;20084;47.912;19.044;2023-07-02T12:20:34;3.38;;;1.60;;
33760;SDS011;20084;47.912;19.044;2023-07-02T12:23:00;1.65;;;1.42;;
33760;SDS011;20084;47.912;19.044;2023-07-02T12:25:26;1.30;;;1.20;;
33760;SDS011;20084;47.912;19.044;2023-07-02T12:27:52;1.52;;;1.00;;
33760;SDS011;20084;47.912;19.044;2023-07-02T12:30:18;6.45;;;1.33;;
33760;SDS011;20084;47.912;19.044;2023-07-02T12:32:44;1.15;;;1.00;;
33760;SDS011;20084;47.912;19.044;2023-07-02T12:35:10;1.63;;;1.52;;
33760;SDS011;20084;47.912;19.044;2023-07-02T12:37:43;2.88;;;1.58;;
33760;SDS011;20084;47.912;19.044;2023-07-02T12:40:11;9.40;;;6.95;;
33760;SDS011;20084;47.912;19.044;2023-07-02T12:42:37;5.72;;;2.45;;
33760;SDS011;20084;47.912;19.044;2023-07-02T12:45:03;6.78;;;1.58;;
33760;SDS011;20084;47.912;19.044;2023-07-02T12:47:30;0.80;;;0.80;;
33760;SDS011;20084;47.912;19.044;2023-07-02T12:49:56;1.38;;;0.90;;
33760;SDS011;20084;47.912;19.044;2023-07-02T12:52:22;13.70;;;1.30;;
33760;SDS011;20084;47.912;19.044;2023-07-02T12:54:47;4.30;;;1.17;;
33760;SDS011;20084;47.912;19.044;2023-07-02T12:57:13;1.75;;;1.02;;
33760;SDS011;20084;47.912;19.044;2023-07-02T12:59:38;4.32;;;0.93;;
33760;SDS011;20084;47.912;19.044;2023-07-02T13:02:04;4.88;;;1.10;;
33760;SDS011;20084;47.912;19.044;2023-07-02T13:04:31;1.10;;;1.05;;
33760;SDS011;20084;47.912;19.044;2023-07-02T13:06:57;2.08;;;0.90;;
33760;SDS011;20084;47.912;19.044;2023-07-02T13:09:23;1.00;;;1.00;;
33760;SDS011;20084;47.912;19.044;2023-07-02T13:11:49;1.17;;;0.95;;
33760;SDS011;20084;47.912;19.044;2023-07-02T13:14:15;2.67;;;1.20;;
33760;SDS011;20084;47.912;19.044;2023-07-02T13:16:42;5.63;;;1.35;;
33760;SDS011;20084;47.912;19.044;2023-07-02T13:19:08;2.10;;;1.00;;
33760;SDS011;20084;47.912;19.044;2023-07-02T13:21:34;14.15;;;1.77;;
33760;SDS011;20084;47.912;19.044;2023-07-02T13:24:00;0.65;;;0.65;;
33760;SDS011;20084;47.912;19.044;2023-07-02T13:26:26;3.42;;;0.90;;
33760;SDS011;20084;47.912;19.044;2023-07-02T13:28:52;11.63;;;1.02;;
33760;SDS011;20084;47.912;19.044;2023-07-02T13:31:18;2.58;;;1.27;;
33760;SDS011;20084;47.912;19.044;2023-07-02T13:33:44;0.70;;;0.70;;
33760;SDS011;20084;47.912;19.044;2023-07-02T13:36:11;1.40;;;1.17;;
33760;SDS011;20084;47.912;19.044;2023-07-02T13:38:37;1.45;;;0.80;;
33760;SDS011;20084;47.912;19.044;2023-07-02T13:41:03;1.27;;;0.73;;
33760;SDS011;20084;47.912;19.044;2023-07-02T13:43:29;1.48;;;0.60;;
33760;SDS011;20084;47.912;19.044;2023-07-02T13:45:56;1.05;;;0.68;;
33760;SDS011;20084;47.912;19.044;2023-07-02T13:48:22;1.27;;;0.90;;
33760;SDS011;20084;47.912;19.044;2023-07-02T13:50:48;2.20;;;0.80;;
33760;SDS011;20084;47.912;19.044;2023-07-02T13:53:14;2.10;;;1.13;;
33760;SDS011;20084;47.912;19.044;2023-07-02T13:55:40;0.80;;;0.80;;
33760;SDS011;20084;47.912;19.044;2023-07-02T13:58:06;0.80;;;0.80;;
33760;SDS011;20084;47.912;19.044;2023-07-02T14:00:32;0.90;;;0.70;;
33760;SDS011;20084;47.912;19.044;2023-07-02T14:02:58;1.10;;;0.93;;
33760;SDS011;20084;47.912;19.044;2023-07-02T14:05:24;1.38;;;1.00;;
33760;SDS011;20084;47.912;19.044;2023-07-02T14:07:50;1.65;;;0.70;;
33760;SDS011;20084;47.912;19.044;2023-07-02T14:10:16;0.88;;;0.80;;
33760;SDS011;20084;47.912;19.044;2023-07-02T14:12:42;0.80;;;0.80;;
33760;SDS011;20084;47.912;19.044;2023-07-02T14:15:09;1.00;;;0.88;;
33760;SDS011;20084;47.912;19.044;2023-07-02T14:17:35;0.95;;;0.75;;
33760;SDS011;20084;47.912;19.044;2023-07-02T14:20:02;2.50;;;1.08;;
33760;SDS011;20084;47.912;19.044;2023-07-02T14:22:29;1.63;;;0.80;;
33760;SDS011;20084;47.912;19.044;2023-07-02T14:24:55;1.23;;;0.88;;
33760;SDS011;20084;47.912;19.044;2023-07-02T14:27:21;1.00;;;0.90;;
33760;SDS011;20084;47.912;19.044;2023-07-02T14:29:47;0.88;;;0.80;;
33760;SDS011;20084;47.912;19.044;2023-07-02T14:32:13;0.88;;;0.88;;
33760;SDS011;20084;47.912;19.044;2023-07-02T14:34:40;2.05;;;0.80;;
33760;SDS011;20084;47.912;19.044;2023-07-02T14:37:06;2.08;;;0.80;;
33760;SDS011;20084;47.912;19.044;2023-07-02T14:39:32;1.60;;;0.95;;